Arctic Bay, Canada
Current Conditions -  °F | °C
As of 2:00 PM on Thursday 23 Oct 2014 (Local Time) from CYIO Reporting Station
Broken Clouds Broken Clouds  
Wind Chill: -12°   Ceiling: 1900
Heat Index:   Visibility: 20mi
Dew Point:   Wind: 24mph
Humidity: 85%   Direction: 230°SW
Pressure: 29.76"   Gusts: NA
Location:  73.03°N, 85.17°W
Report Text: CYIO 231900Z 23021KT 20SM BKN019 BKN220 M13/M15 A2976 RMK SC5CI2 SLP085
Loading
Personal Weather Stations






























Interactive Weather Map New forecast layout! Learn more

10-Day Weather Forecast

Advertisements
Track Severe Weather on mobile